Terminal Aerodrome Forecast
Issued by NWS Caribou, ME

Current Version | Previous Version | Text Only | Print | Product List | Glossary On
Versions: 1 2 3 4 5 6 7 8 9 10 11 12 13 14 15 16 17
000
FTUS41 KCAR 301801 RRA
TAFCAR
TAF
KCAR 301801Z 3018/3118 20015G23KT P6SM SCT045
     FM302200 20015G22KT P6SM VCTS SCT020CB BKN045
     FM310200 22010KT 3SM SHRA OVC022
     FM310600 24008KT 2SM RA BR OVC010
     FM311000 33010KT 6SM -SHRA SCT012 OVC020=

USA.gov is the U.S. government's official web portal to all federal, state and local government web resources and services.